Time;durP1;ratioP1;P1;durP2;ratioP2;P2;SDS_P1;SDS_P2;PMS_P1;PMS_P2;Temp;Humidity;BMP_temperature;BMP_pressure;BME280_temperature;BME280_humidity;BME280_pressure;Samples;Min_cycle;Max_cycle;Signal;HPM_P1;HPM_P2
2023/04/26 06:08:39;;;;;;;;;0.00;0.00;;;;;;;;6167886;22;50251;-77
2023/04/26 06:11:04;;;;;;;;;0.00;0.00;;;;;;;;6220444;22;49916;-74
2023/04/26 06:13:30;;;;;;;;;0.00;0.00;;;;;;;;6226607;22;51530;-74
2023/04/26 06:15:55;;;;;;;;;0.00;0.00;;;;;;;;6224515;22;49537;-74
2023/04/26 06:18:20;;;;;;;;;0.00;0.00;;;;;;;;6224635;22;49654;-73
2023/04/26 06:20:45;;;;;;;;;0.00;0.00;;;;;;;;6225560;22;49624;-75
2023/04/26 06:23:11;;;;;;;;;0.00;0.00;;;;;;;;6226598;22;49605;-73
2023/04/26 06:25:36;;;;;;;;;0.00;0.00;;;;;;;;6198159;22;50120;-73
2023/04/26 06:28:02;;;;;;;;;0.00;0.00;;;;;;;;6228567;22;49990;-73
2023/04/26 06:30:27;;;;;;;;;0.00;0.00;;;;;;;;6233958;22;49886;-77
2023/04/26 06:32:53;;;;;;;;;0.00;0.00;;;;;;;;6234422;22;50014;-73
2023/04/26 06:35:18;;;;;;;;;0.25;0.00;;;;;;;;6234086;22;49564;-74
2023/04/26 06:37:43;;;;;;;;;3.00;3.00;;;;;;;;6234349;22;49673;-73
2023/04/26 06:40:09;;;;;;;;;0.00;0.00;;;;;;;;6234081;22;49951;-72
2023/04/26 06:42:35;;;;;;;;;0.00;0.00;;;;;;;;6206383;22;50904;-73
2023/04/26 06:45:00;;;;;;;;;0.00;0.00;;;;;;;;6206577;22;50125;-73
2023/04/26 06:47:25;;;;;;;;;0.00;0.00;;;;;;;;6205833;22;49635;-74
2023/04/26 06:49:51;;;;;;;;;0.00;0.00;;;;;;;;6234184;22;49575;-74
2023/04/26 06:52:16;;;;;;;;;0.67;0.00;;;;;;;;6233769;22;50720;-74
2023/04/26 06:54:41;;;;;;;;;0.00;0.00;;;;;;;;6234198;22;49764;-73
2023/04/26 06:57:06;;;;;;;;;1.67;1.67;;;;;;;;6234188;22;49870;-73
2023/04/26 06:59:31;;;;;;;;;0.00;0.00;;;;;;;;6234091;22;49614;-73
2023/04/26 07:01:57;;;;;;;;;0.75;0.75;;;;;;;;6233467;22;49736;-73
2023/04/26 07:04:22;;;;;;;;;0.00;0.00;;;;;;;;6234571;22;50093;-73
2023/04/26 07:06:47;;;;;;;;;0.00;0.00;;;;;;;;6234315;22;49889;-75
2023/04/26 07:09:12;;;;;;;;;0.00;0.00;;;;;;;;6233987;22;50034;-75
2023/04/26 07:11:38;;;;;;;;;0.00;0.00;;;;;;;;6205237;22;52188;-74
2023/04/26 07:14:03;;;;;;;;;0.00;0.00;;;;;;;;6232639;22;49709;-74
2023/04/26 07:16:29;;;;;;;;;0.00;0.00;;;;;;;;6234096;22;50019;-74
2023/04/26 07:18:57;;;;;;;;;0.00;0.00;;;;;;;;6233557;22;49930;-73
2023/04/26 07:21:22;;;;;;;;;0.00;0.00;;;;;;;;6233105;22;49947;-73
2023/04/26 07:23:47;;;;;;;;;0.00;0.00;;;;;;;;6233757;22;49540;-73
2023/04/26 07:26:12;;;;;;;;;0.00;0.00;;;;;;;;6233473;22;50213;-73
2023/04/26 07:28:37;;;;;;;;;0.00;0.00;;;;;;;;6233416;22;49905;-73
2023/04/26 07:31:03;;;;;;;;;0.00;0.00;;;;;;;;6205389;22;51399;-73
2023/04/26 07:33:28;;;;;;;;;13.00;13.00;;;;;;;;6233271;22;49630;-74
2023/04/26 07:35:55;;;;;;;;;0.00;0.00;;;;;;;;6233828;22;49867;-74
2023/04/26 07:38:20;;;;;;;;;0.00;0.00;;;;;;;;6206322;22;50022;-74
2023/04/26 07:40:46;;;;;;;;;0.00;0.00;;;;;;;;6233179;22;50101;-75
2023/04/26 07:43:12;;;;;;;;;0.00;0.00;;;;;;;;6235329;22;49809;-75
2023/04/26 07:45:37;;;;;;;;;0.00;0.00;;;;;;;;6235081;22;49778;-74
2023/04/26 07:48:02;;;;;;;;;0.00;0.00;;;;;;;;6235405;22;50213;-74
2023/04/26 07:50:27;;;;;;;;;0.00;0.00;;;;;;;;6234873;22;50251;-74
2023/04/26 07:52:53;;;;;;;;;0.00;0.00;;;;;;;;6206833;22;50060;-74
2023/04/26 07:55:18;;;;;;;;;1.33;1.33;;;;;;;;6235059;22;49741;-74
2023/04/26 07:57:43;;;;;;;;;1.00;1.00;;;;;;;;6182685;22;50036;-74
2023/04/26 08:00:09;;;;;;;;;0.00;0.00;;;;;;;;6234720;22;50552;-74
2023/04/26 08:02:34;;;;;;;;;0.00;0.00;;;;;;;;6235158;22;49643;-74
2023/04/26 08:05:00;;;;;;;;;0.00;0.00;;;;;;;;6234677;22;50058;-74
2023/04/26 08:07:25;;;;;;;;;0.33;0.00;;;;;;;;6235693;22;49531;-73
2023/04/26 08:09:50;;;;;;;;;0.00;0.00;;;;;;;;6206866;22;50845;-74
2023/04/26 08:12:15;;;;;;;;;0.00;0.00;;;;;;;;6235147;22;49718;-74
2023/04/26 08:14:41;;;;;;;;;1.00;0.33;;;;;;;;6207282;22;49644;-73
2023/04/26 08:17:08;;;;;;;;;0.00;0.00;;;;;;;;6235112;22;49568;-74
2023/04/26 08:19:33;;;;;;;;;4.00;1.00;;;;;;;;6234138;22;49836;-73
2023/04/26 08:21:58;;;;;;;;;0.00;0.00;;;;;;;;6234732;22;49589;-75
2023/04/26 08:24:23;;;;;;;;;0.00;0.00;;;;;;;;6234608;22;49818;-75
2023/04/26 08:26:49;;;;;;;;;0.00;0.00;;;;;;;;6235131;22;49812;-75
2023/04/26 08:29:15;;;;;;;;;1.00;1.00;;;;;;;;6233796;22;50103;-75
2023/04/26 08:31:40;;;;;;;;;0.00;0.00;;;;;;;;6234701;22;50074;-74
2023/04/26 08:34:07;;;;;;;;;0.75;0.75;;;;;;;;6234668;22;49616;-74
2023/04/26 08:36:35;;;;;;;;;0.00;0.00;;;;;;;;6235169;22;50096;-74
2023/04/26 08:39:00;;;;;;;;;0.75;0.00;;;;;;;;6234275;22;49902;-74
2023/04/26 08:41:26;;;;;;;;;0.33;0.33;;;;;;;;6234659;22;49738;-74
2023/04/26 08:43:52;;;;;;;;;0.75;0.75;;;;;;;;6234873;22;49945;-74
2023/04/26 08:46:18;;;;;;;;;0.00;0.00;;;;;;;;6234398;22;50042;-74
2023/04/26 08:48:46;;;;;;;;;0.00;0.00;;;;;;;;6234067;22;50106;-73
2023/04/26 08:51:11;;;;;;;;;3.00;3.00;;;;;;;;6234329;22;49744;-83
2023/04/26 08:53:37;;;;;;;;;0.00;0.00;;;;;;;;6234263;22;49702;-87
2023/04/26 08:56:03;;;;;;;;;1.00;1.00;;;;;;;;6235589;22;49635;-71
2023/04/26 08:58:29;;;;;;;;;0.00;0.00;;;;;;;;6234428;22;51207;-71
2023/04/26 09:00:54;;;;;;;;;6.00;6.00;;;;;;;;6234889;22;49670;-71
2023/04/26 09:03:21;;;;;;;;;0.00;0.00;;;;;;;;6234757;22;49580;-73
2023/04/26 09:05:48;;;;;;;;;0.00;0.00;;;;;;;;6234325;22;49615;-70
2023/04/26 09:08:17;;;;;;;;;4.50;4.50;;;;;;;;6233809;22;49922;-72
2023/04/26 09:10:42;;;;;;;;;1.25;1.25;;;;;;;;6232613;22;49961;-71
2023/04/26 09:13:07;;;;;;;;;0.00;0.00;;;;;;;;6233301;22;49677;-72
2023/04/26 09:15:33;;;;;;;;;0.00;0.00;;;;;;;;6233619;22;50036;-71
2023/04/26 09:18:15;;;;;;;;;0.00;0.00;;;;;;;;6232798;22;49646;-70
2023/04/26 09:20:40;;;;;;;;;0.00;0.00;;;;;;;;6232817;22;49735;-71
2023/04/26 09:23:06;;;;;;;;;0.00;0.00;;;;;;;;6233965;22;50037;-70
2023/04/26 09:25:32;;;;;;;;;0.00;0.00;;;;;;;;6234597;22;49634;-71
2023/04/26 09:27:57;;;;;;;;;0.00;0.00;;;;;;;;6234239;22;50227;-70
2023/04/26 09:30:23;;;;;;;;;0.00;0.00;;;;;;;;6233721;22;49649;-71
2023/04/26 09:32:52;;;;;;;;;0.00;0.00;;;;;;;;6234297;22;49709;-71
2023/04/26 09:35:38;;;;;;;;;0.00;0.00;;;;;;;;6234031;22;49673;-70
2023/04/26 09:38:13;;;;;;;;;0.00;0.00;;;;;;;;6232386;22;50784;-71
2023/04/26 09:40:43;;;;;;;;;0.00;0.00;;;;;;;;6233967;22;49843;-70
2023/04/26 09:43:12;;;;;;;;;3.00;3.00;;;;;;;;6233859;22;49984;-71
2023/04/26 09:45:48;;;;;;;;;3.25;3.25;;;;;;;;6234309;22;49868;-70
2023/04/26 09:48:15;;;;;;;;;0.00;0.00;;;;;;;;6233722;22;49949;-71
2023/04/26 09:50:40;;;;;;;;;0.00;0.00;;;;;;;;6234170;22;50049;-71
2023/04/26 09:53:06;;;;;;;;;0.00;0.00;;;;;;;;6234713;22;50084;-70
2023/04/26 09:55:31;;;;;;;;;0.00;0.00;;;;;;;;6234529;22;50055;-71
2023/04/26 09:57:57;;;;;;;;;0.00;0.00;;;;;;;;6234138;22;50793;-71
2023/04/26 10:00:23;;;;;;;;;0.00;0.00;;;;;;;;6206846;22;49703;-71
2023/04/26 10:02:49;;;;;;;;;0.00;0.00;;;;;;;;6234259;22;50010;-71
2023/04/26 10:05:14;;;;;;;;;1.00;0.00;;;;;;;;6233686;22;49982;-71
2023/04/26 10:07:40;;;;;;;;;0.00;0.00;;;;;;;;6234352;22;50627;-71
2023/04/26 10:10:06;;;;;;;;;0.00;0.00;;;;;;;;6233124;22;49808;-71
2023/04/26 10:12:33;;;;;;;;;0.00;0.00;;;;;;;;6234361;22;49756;-71
2023/04/26 10:14:58;;;;;;;;;0.00;0.00;;;;;;;;6234568;22;49966;-70
2023/04/26 10:17:23;;;;;;;;;0.00;0.00;;;;;;;;6233890;22;49702;-70
2023/04/26 10:19:50;;;;;;;;;0.00;0.00;;;;;;;;6233756;22;49646;-71
2023/04/26 10:22:18;;;;;;;;;0.00;0.00;;;;;;;;6233973;22;49993;-71
2023/04/26 10:24:45;;;;;;;;;0.00;0.00;;;;;;;;6206862;22;49698;-71
2023/04/26 10:27:10;;;;;;;;;3.75;1.50;;;;;;;;6234032;22;50819;-70
2023/04/26 10:29:53;;;;;;;;;1.00;0.00;;;;;;;;6206608;22;49852;-71
2023/04/26 10:32:22;;;;;;;;;0.00;0.00;;;;;;;;6234017;22;49689;-70
2023/04/26 10:35:06;;;;;;;;;0.00;0.00;;;;;;;;6234499;22;49967;-71
2023/04/26 10:37:31;;;;;;;;;0.00;0.00;;;;;;;;6234053;22;50775;-70
2023/04/26 10:40:16;;;;;;;;;0.00;0.00;;;;;;;;6234340;22;49568;-71
2023/04/26 10:42:41;;;;;;;;;0.00;0.00;;;;;;;;6233286;22;49888;-71
2023/04/26 10:45:33;;;;;;;;;0.00;0.00;;;;;;;;6233867;22;49564;-71
2023/04/26 10:48:17;;;;;;;;;0.00;0.00;;;;;;;;6198449;22;52420;-71
2023/04/26 10:51:00;;;;;;;;;0.00;0.00;;;;;;;;6232567;22;50039;-71
2023/04/26 10:53:51;;;;;;;;;0.00;0.00;;;;;;;;6205200;22;50090;-80
2023/04/26 10:56:22;;;;;;;;;8.50;8.50;;;;;;;;6231635;22;49905;-72
2023/04/26 10:58:48;;;;;;;;;0.00;0.00;;;;;;;;6231933;22;49723;-75
2023/04/26 11:01:15;;;;;;;;;0.00;0.00;;;;;;;;6232436;22;50128;-71
2023/04/26 11:03:41;;;;;;;;;0.00;0.00;;;;;;;;6232298;22;49924;-74
2023/04/26 11:06:07;;;;;;;;;0.00;0.00;;;;;;;;6232299;22;49784;-74
2023/04/26 11:08:34;;;;;;;;;0.00;0.00;;;;;;;;6231888;22;51153;-74
2023/04/26 11:11:02;;;;;;;;;0.00;0.00;;;;;;;;6232076;22;50180;-74
2023/04/26 11:13:31;;;;;;;;;0.00;0.00;;;;;;;;6231959;22;49757;-74
2023/04/26 11:16:02;;;;;;;;;0.00;0.00;;;;;;;;6232646;22;49914;-72
2023/04/26 11:18:28;;;;;;;;;0.00;0.00;;;;;;;;6207275;22;51526;-73
2023/04/26 11:20:53;;;;;;;;;0.00;0.00;;;;;;;;6235307;22;49648;-73
2023/04/26 11:23:19;;;;;;;;;6.00;1.00;;;;;;;;6235157;22;50049;-74
2023/04/26 11:25:44;;;;;;;;;0.00;0.00;;;;;;;;6235605;22;49978;-71
2023/04/26 11:28:09;;;;;;;;;0.00;0.00;;;;;;;;6234749;22;50186;-72
2023/04/26 11:30:35;;;;;;;;;0.00;0.00;;;;;;;;6234925;22;49692;-72
2023/04/26 11:33:01;;;;;;;;;0.00;0.00;;;;;;;;6235128;22;50006;-72
2023/04/26 11:35:28;;;;;;;;;0.00;0.00;;;;;;;;6235539;22;49602;-71
2023/04/26 11:37:56;;;;;;;;;0.00;0.00;;;;;;;;6207574;22;51769;-71
2023/04/26 11:40:22;;;;;;;;;0.00;0.00;;;;;;;;6235266;22;50027;-72
2023/04/26 11:42:47;;;;;;;;;0.00;0.00;;;;;;;;6235167;22;49606;-73
2023/04/26 11:45:15;;;;;;;;;0.00;0.00;;;;;;;;6234902;22;50036;-72
2023/04/26 11:47:41;;;;;;;;;0.00;0.00;;;;;;;;6207255;22;51146;-73
2023/04/26 11:50:08;;;;;;;;;0.00;0.00;;;;;;;;6235216;22;50033;-72
2023/04/26 11:52:33;;;;;;;;;0.00;0.00;;;;;;;;6235009;22;49639;-73
2023/04/26 11:55:06;;;;;;;;;1.00;0.00;;;;;;;;6208088;22;50101;-73
2023/04/26 11:57:32;;;;;;;;;0.00;0.00;;;;;;;;6206539;22;50779;-73
2023/04/26 12:00:10;;;;;;;;;0.00;0.00;;;;;;;;6234917;22;49843;-73
2023/04/26 12:02:35;;;;;;;;;0.00;0.00;;;;;;;;6235280;22;49561;-73
2023/04/26 12:05:02;;;;;;;;;0.00;0.00;;;;;;;;6235349;22;49917;-73
2023/04/26 12:07:31;;;;;;;;;0.00;0.00;;;;;;;;6234697;22;50282;-73
2023/04/26 12:09:56;;;;;;;;;0.00;0.00;;;;;;;;6234138;22;49696;-73
2023/04/26 12:12:22;;;;;;;;;0.00;0.00;;;;;;;;6234502;22;49761;-72
2023/04/26 12:14:47;;;;;;;;;0.00;0.00;;;;;;;;6235271;22;49910;-72
2023/04/26 12:17:13;;;;;;;;;0.00;0.00;;;;;;;;6206843;22;51380;-73
2023/04/26 12:19:39;;;;;;;;;0.00;0.00;;;;;;;;6234563;22;50126;-73
2023/04/26 12:22:05;;;;;;;;;4.00;3.00;;;;;;;;6234314;22;49749;-71
2023/04/26 12:24:37;;;;;;;;;0.00;0.00;;;;;;;;6235033;22;49496;-71
2023/04/26 12:27:03;;;;;;;;;0.00;0.00;;;;;;;;6234709;22;49707;-70
2023/04/26 12:29:29;;;;;;;;;0.00;0.00;;;;;;;;6233985;22;49651;-71
2023/04/26 12:31:54;;;;;;;;;0.00;0.00;;;;;;;;6234760;22;49636;-72
2023/04/26 12:34:20;;;;;;;;;0.00;0.00;;;;;;;;6234673;22;49870;-71
2023/04/26 12:36:45;;;;;;;;;0.00;0.00;;;;;;;;6234479;22;51473;-72
2023/04/26 12:39:12;;;;;;;;;0.00;0.00;;;;;;;;6206925;22;49756;-71
2023/04/26 12:41:37;;;;;;;;;0.00;0.00;;;;;;;;6206851;22;49793;-71
2023/04/26 12:44:03;;;;;;;;;0.00;0.00;;;;;;;;6207649;22;49972;-71
2023/04/26 12:46:28;;;;;;;;;0.00;0.00;;;;;;;;6234089;22;50849;-71
2023/04/26 12:48:53;;;;;;;;;0.00;0.00;;;;;;;;6234455;22;49690;-71
2023/04/26 12:51:18;;;;;;;;;0.00;0.00;;;;;;;;6207221;22;49804;-70
2023/04/26 12:53:44;;;;;;;;;0.00;0.00;;;;;;;;6234881;22;49975;-68
2023/04/26 12:56:09;;;;;;;;;0.00;0.00;;;;;;;;6234018;22;50600;-73
2023/04/26 12:58:34;;;;;;;;;0.00;0.00;;;;;;;;6207626;22;49698;-83
2023/04/26 13:01:00;;;;;;;;;0.00;0.00;;;;;;;;6234920;22;49985;-80
2023/04/26 13:03:25;;;;;;;;;0.00;0.00;;;;;;;;6233557;22;49999;-68
2023/04/26 13:05:51;;;;;;;;;0.00;0.00;;;;;;;;6233315;22;49735;-71
2023/04/26 13:08:16;;;;;;;;;0.00;0.00;;;;;;;;6232799;22;49706;-70
2023/04/26 13:10:41;;;;;;;;;0.00;0.00;;;;;;;;6205946;22;50132;-75
2023/04/26 13:13:06;;;;;;;;;0.00;0.00;;;;;;;;6234423;22;50090;-71
2023/04/26 13:15:32;;;;;;;;;0.00;0.00;;;;;;;;6234262;22;50032;-70
2023/04/26 13:17:57;;;;;;;;;0.00;0.00;;;;;;;;6234732;22;49587;-69
2023/04/26 13:20:22;;;;;;;;;1.50;1.50;;;;;;;;6234638;22;49772;-72
2023/04/26 13:22:48;;;;;;;;;0.00;0.00;;;;;;;;6235112;22;49980;-71
2023/04/26 13:25:14;;;;;;;;;0.00;0.00;;;;;;;;6234407;22;49640;-72
2023/04/26 13:27:39;;;;;;;;;0.00;0.00;;;;;;;;6235078;22;50081;-72
2023/04/26 13:30:05;;;;;;;;;0.00;0.00;;;;;;;;6234413;22;50047;-70
2023/04/26 13:32:30;;;;;;;;;0.00;0.00;;;;;;;;6235001;22;49911;-70
2023/04/26 13:34:56;;;;;;;;;0.00;0.00;;;;;;;;6207200;22;51517;-70
2023/04/26 13:37:21;;;;;;;;;0.00;0.00;;;;;;;;6235018;22;50227;-71
2023/04/26 13:39:46;;;;;;;;;0.00;0.00;;;;;;;;6234546;22;49793;-73
2023/04/26 13:42:12;;;;;;;;;0.00;0.00;;;;;;;;6234746;22;49963;-68
2023/04/26 13:44:38;;;;;;;;;0.00;0.00;;;;;;;;6234762;22;50407;-67
2023/04/26 13:47:03;;;;;;;;;0.00;0.00;;;;;;;;6234335;22;49781;-67
2023/04/26 13:49:28;;;;;;;;;0.00;0.00;;;;;;;;6234506;22;49672;-74
2023/04/26 13:51:54;;;;;;;;;0.00;0.00;;;;;;;;6235008;22;49960;-67
2023/04/26 13:54:20;;;;;;;;;0.00;0.00;;;;;;;;6233900;22;49615;-68
2023/04/26 13:56:46;;;;;;;;;0.00;0.00;;;;;;;;6234504;22;50045;-71
2023/04/26 13:59:11;;;;;;;;;0.00;0.00;;;;;;;;6234518;22;49852;-69
2023/04/26 14:01:37;;;;;;;;;0.00;0.00;;;;;;;;6234860;22;49894;-70
2023/04/26 14:04:03;;;;;;;;;0.00;0.00;;;;;;;;6234188;22;50233;-70
2023/04/26 14:06:28;;;;;;;;;3.00;3.00;;;;;;;;6234245;22;49512;-71
2023/04/26 14:08:53;;;;;;;;;0.00;0.00;;;;;;;;6206440;22;49809;-77
2023/04/26 14:11:18;;;;;;;;;0.00;0.00;;;;;;;;6234871;22;49975;-71
2023/04/26 14:13:44;;;;;;;;;0.00;0.00;;;;;;;;6233744;22;49898;-71
2023/04/26 14:16:09;;;;;;;;;0.00;0.00;;;;;;;;6234456;22;49600;-71
2023/04/26 14:18:35;;;;;;;;;0.00;0.00;;;;;;;;6206806;22;49649;-78
2023/04/26 14:21:00;;;;;;;;;0.00;0.00;;;;;;;;6206980;22;50034;-71
2023/04/26 14:23:25;;;;;;;;;0.00;0.00;;;;;;;;6233571;22;50505;-72
2023/04/26 14:25:51;;;;;;;;;0.00;0.00;;;;;;;;6234334;22;49924;-70
2023/04/26 14:28:17;;;;;;;;;0.00;0.00;;;;;;;;6234000;22;49817;-73
2023/04/26 14:30:42;;;;;;;;;0.00;0.00;;;;;;;;6234285;22;49981;-72
2023/04/26 14:33:07;;;;;;;;;0.00;0.00;;;;;;;;6233773;22;51355;-71
2023/04/26 14:35:32;;;;;;;;;0.00;0.00;;;;;;;;6234001;22;49719;-72
2023/04/26 14:37:57;;;;;;;;;0.00;0.00;;;;;;;;6234163;22;50002;-70
2023/04/26 14:40:23;;;;;;;;;0.00;0.00;;;;;;;;6234682;22;49566;-65
2023/04/26 14:42:48;;;;;;;;;0.00;0.00;;;;;;;;6233555;22;50036;-68
2023/04/26 14:45:13;;;;;;;;;0.00;0.00;;;;;;;;6232963;22;49619;-72
2023/04/26 14:47:38;;;;;;;;;0.00;0.00;;;;;;;;6206483;22;49659;-73
2023/04/26 14:50:04;;;;;;;;;0.00;0.00;;;;;;;;6233466;22;49678;-73
2023/04/26 14:52:32;;;;;;;;;0.00;0.00;;;;;;;;6234451;22;49950;-73
2023/04/26 14:54:57;;;;;;;;;0.00;0.00;;;;;;;;6234573;22;49734;-73
2023/04/26 14:57:23;;;;;;;;;0.00;0.00;;;;;;;;6234405;22;49768;-72
2023/04/26 14:59:48;;;;;;;;;0.00;0.00;;;;;;;;6207816;22;50399;-73
2023/04/26 15:02:13;;;;;;;;;0.00;0.00;;;;;;;;6234674;22;50539;-74
2023/04/26 15:04:38;;;;;;;;;0.00;0.00;;;;;;;;6235373;22;49690;-74
2023/04/26 15:07:04;;;;;;;;;1.00;1.00;;;;;;;;6207619;22;49661;-73
2023/04/26 15:09:29;;;;;;;;;0.00;0.00;;;;;;;;6207496;22;49896;-73
2023/04/26 15:11:54;;;;;;;;;0.67;0.67;;;;;;;;6234713;22;50509;-74
2023/04/26 15:14:19;;;;;;;;;0.00;0.00;;;;;;;;6235268;22;49690;-73
2023/04/26 15:16:45;;;;;;;;;0.00;0.00;;;;;;;;6235471;22;49681;-74
2023/04/26 15:19:10;;;;;;;;;0.00;0.00;;;;;;;;6235687;22;49892;-73
2023/04/26 15:21:35;;;;;;;;;0.00;0.00;;;;;;;;6206816;22;52114;-73
2023/04/26 15:24:01;;;;;;;;;0.00;0.00;;;;;;;;6234915;22;49562;-73
2023/04/26 15:26:29;;;;;;;;;0.00;0.00;;;;;;;;6235030;22;49535;-73
2023/04/26 15:28:55;;;;;;;;;0.00;0.00;;;;;;;;6206920;22;50101;-73
2023/04/26 15:31:20;;;;;;;;;0.00;0.00;;;;;;;;6206723;22;51315;-73
2023/04/26 15:33:45;;;;;;;;;0.00;0.00;;;;;;;;6235381;22;49970;-73
2023/04/26 15:36:11;;;;;;;;;0.00;0.00;;;;;;;;6235319;22;49789;-74
2023/04/26 15:38:36;;;;;;;;;0.00;0.00;;;;;;;;6207329;22;49994;-73
2023/04/26 15:41:01;;;;;;;;;0.00;0.00;;;;;;;;6207488;22;52282;-73
2023/04/26 15:43:27;;;;;;;;;0.00;0.00;;;;;;;;6235350;22;49566;-73
2023/04/26 15:45:52;;;;;;;;;0.00;0.00;;;;;;;;6235165;22;49619;-74
2023/04/26 15:48:17;;;;;;;;;0.00;0.00;;;;;;;;6235000;22;49845;-74
2023/04/26 15:50:42;;;;;;;;;0.00;0.00;;;;;;;;6234082;22;49643;-73
2023/04/26 15:53:07;;;;;;;;;0.00;0.00;;;;;;;;6233541;22;49886;-74
2023/04/26 15:55:33;;;;;;;;;0.00;0.00;;;;;;;;6233510;22;49649;-74
2023/04/26 15:57:58;;;;;;;;;0.00;0.00;;;;;;;;6234019;22;49587;-74
2023/04/26 16:00:25;;;;;;;;;0.00;0.00;;;;;;;;6232799;22;51686;-73
2023/04/26 16:02:50;;;;;;;;;0.00;0.00;;;;;;;;6206877;22;49675;-72
2023/04/26 16:05:16;;;;;;;;;0.00;0.00;;;;;;;;6234553;22;49595;-74
2023/04/26 16:07:41;;;;;;;;;0.00;0.00;;;;;;;;6234504;22;49982;-76
2023/04/26 16:10:08;;;;;;;;;0.00;0.00;;;;;;;;6233592;22;52203;-76
2023/04/26 16:12:38;;;;;;;;;0.00;0.00;;;;;;;;6234623;22;50034;-74
2023/04/26 16:15:03;;;;;;;;;0.00;0.00;;;;;;;;6234230;22;50069;-74
2023/04/26 16:17:28;;;;;;;;;0.00;0.00;;;;;;;;6234960;22;49928;-75
2023/04/26 16:19:53;;;;;;;;;0.00;0.00;;;;;;;;6234411;22;49666;-75
2023/04/26 16:22:19;;;;;;;;;0.00;0.00;;;;;;;;6234568;22;49666;-75
2023/04/26 16:24:44;;;;;;;;;0.00;0.00;;;;;;;;6234697;22;49551;-76
2023/04/26 16:27:09;;;;;;;;;0.00;0.00;;;;;;;;6234887;22;49925;-75
2023/04/26 16:29:35;;;;;;;;;0.00;0.00;;;;;;;;6206714;22;52321;-76
2023/04/26 16:34:35;;;;;;;;;0.00;0.00;;;;;;;;6265629;22;49618;-69
2023/04/26 16:37:00;;;;;;;;;0.00;0.00;;;;;;;;6263264;22;49984;-70
2023/04/26 16:39:27;;;;;;;;;0.00;0.00;;;;;;;;6264549;22;50528;-70
2023/04/26 16:41:52;;;;;;;;;0.00;0.00;;;;;;;;6263467;22;49982;-68
2023/04/26 16:44:17;;;;;;;;;0.00;0.00;;;;;;;;6265172;22;49606;-68
2023/04/26 16:46:43;;;;;;;;;0.00;0.00;;;;;;;;6265584;22;49581;-68
2023/04/26 16:49:08;;;;;;;;;0.00;0.00;;;;;;;;6264626;22;50271;-69
2023/04/26 16:51:33;;;;;;;;;0.00;0.00;;;;;;;;6264837;22;50155;-69
2023/04/26 16:53:58;;;;;;;;;0.00;0.00;;;;;;;;6264869;22;49605;-68
2023/04/26 16:56:23;;;;;;;;;0.00;0.00;;;;;;;;6265622;22;49867;-69
2023/04/26 16:58:49;;;;;;;;;0.00;0.00;;;;;;;;6264259;22;50333;-68
2023/04/26 17:01:14;;;;;;;;;0.00;0.00;;;;;;;;6264205;22;50006;-68
2023/04/26 17:03:40;;;;;;;;;0.00;0.00;;;;;;;;6264648;22;49791;-69
2023/04/26 17:06:06;;;;;;;;;0.00;0.00;;;;;;;;6265406;22;49673;-70
2023/04/26 17:08:31;;;;;;;;;0.00;0.00;;;;;;;;6265176;22;50139;-71
2023/04/26 17:10:56;;;;;;;;;0.00;0.00;;;;;;;;6265959;22;49977;-69
2023/04/26 17:13:23;;;;;;;;;0.00;0.00;;;;;;;;6265507;22;49757;-70
2023/04/26 17:15:48;;;;;;;;;0.00;0.00;;;;;;;;6264501;22;49492;-71
2023/04/26 17:18:13;;;;;;;;;0.00;0.00;;;;;;;;6265519;22;50087;-69
2023/04/26 17:20:38;;;;;;;;;1.00;1.00;;;;;;;;6265160;22;49730;-68
2023/04/26 17:23:04;;;;;;;;;0.00;0.00;;;;;;;;6237588;22;50125;-73
2023/04/26 17:25:29;;;;;;;;;0.00;0.00;;;;;;;;6265445;22;49923;-72
2023/04/26 17:27:55;;;;;;;;;1.50;0.00;;;;;;;;6264986;22;49589;-72
2023/04/26 17:30:20;;;;;;;;;5.00;3.00;;;;;;;;6265071;22;49694;-72
2023/04/26 17:32:45;;;;;;;;;0.00;0.00;;;;;;;;6264482;22;51049;-72
2023/04/26 17:35:11;;;;;;;;;0.00;0.00;;;;;;;;6265669;22;49789;-71
2023/04/26 17:37:36;;;;;;;;;0.00;0.00;;;;;;;;6236699;22;51067;-71
2023/04/26 17:40:04;;;;;;;;;0.00;0.00;;;;;;;;6264678;22;49648;-71
2023/04/26 17:42:29;;;;;;;;;0.00;0.00;;;;;;;;6264880;22;49566;-79
2023/04/26 17:44:54;;;;;;;;;0.00;0.00;;;;;;;;6265652;22;49874;-76
2023/04/26 17:47:20;;;;;;;;;0.00;0.00;;;;;;;;6265364;22;50109;-72
2023/04/26 17:49:45;;;;;;;;;4.00;0.00;;;;;;;;6265269;22;49934;-72
2023/04/26 17:52:10;;;;;;;;;0.00;0.00;;;;;;;;6265218;22;49973;-71
2023/04/26 17:54:35;;;;;;;;;0.00;0.00;;;;;;;;6265607;22;49503;-72
2023/04/26 17:57:01;;;;;;;;;1.00;1.00;;;;;;;;6264901;22;51734;-72
2023/04/26 17:59:27;;;;;;;;;0.00;0.00;;;;;;;;6237716;22;49748;-73
2023/04/26 18:01:52;;;;;;;;;2.50;0.75;;;;;;;;6265589;22;49934;-74
2023/04/26 18:04:17;;;;;;;;;0.00;0.00;;;;;;;;6265374;22;49991;-71
2023/04/26 18:06:42;;;;;;;;;0.00;0.00;;;;;;;;6265205;22;49872;-70
2023/04/26 18:09:08;;;;;;;;;0.00;0.00;;;;;;;;6264418;22;50005;-72
2023/04/26 18:11:33;;;;;;;;;0.00;0.00;;;;;;;;6265297;22;49844;-74
2023/04/26 18:13:58;;;;;;;;;0.00;0.00;;;;;;;;6265361;22;49979;-73
2023/04/26 18:16:23;;;;;;;;;0.00;0.00;;;;;;;;6264879;22;49843;-74
2023/04/26 18:18:48;;;;;;;;;0.00;0.00;;;;;;;;6236760;22;49745;-73
2023/04/26 18:21:13;;;;;;;;;0.00;0.00;;;;;;;;6265148;22;50052;-72
2023/04/26 18:23:39;;;;;;;;;1.00;1.00;;;;;;;;6265236;22;49534;-72
2023/04/26 18:26:04;;;;;;;;;0.00;0.00;;;;;;;;6264019;22;50363;-73
2023/04/26 18:28:30;;;;;;;;;0.00;0.00;;;;;;;;6265287;22;50012;-76
2023/04/26 18:30:56;;;;;;;;;0.00;0.00;;;;;;;;6264914;22;49758;-75
2023/04/26 18:33:21;;;;;;;;;0.00;0.00;;;;;;;;6264727;22;49714;-74
2023/04/26 18:35:47;;;;;;;;;0.00;0.00;;;;;;;;6264770;22;50912;-73
2023/04/26 18:38:12;;;;;;;;;0.00;0.00;;;;;;;;6265343;22;49657;-73
2023/04/26 18:40:41;;;;;;;;;0.75;0.75;;;;;;;;6265159;22;49866;-73
2023/04/26 18:43:06;;;;;;;;;0.00;0.00;;;;;;;;6264931;22;49621;-73
2023/04/26 18:45:31;;;;;;;;;0.00;0.00;;;;;;;;6236226;22;52112;-70
2023/04/26 18:47:57;;;;;;;;;0.00;0.00;;;;;;;;6264772;22;49921;-71
2023/04/26 18:50:22;;;;;;;;;0.00;0.00;;;;;;;;6264317;22;49721;-71
2023/04/26 18:52:47;;;;;;;;;0.00;0.00;;;;;;;;6264971;22;49500;-70
2023/04/26 18:55:12;;;;;;;;;0.00;0.00;;;;;;;;6264334;22;50876;-72
2023/04/26 18:57:37;;;;;;;;;0.00;0.00;;;;;;;;6264631;22;49638;-72
2023/04/26 19:00:04;;;;;;;;;0.00;0.00;;;;;;;;6264717;22;49742;-74
2023/04/26 19:02:29;;;;;;;;;0.00;0.00;;;;;;;;6264742;22;49956;-74
2023/04/26 19:04:54;;;;;;;;;0.00;0.00;;;;;;;;6264347;22;49630;-72
2023/04/26 19:07:19;;;;;;;;;0.00;0.00;;;;;;;;6265141;22;49582;-74
2023/04/26 19:09:46;;;;;;;;;0.00;0.00;;;;;;;;6264941;22;49582;-75
2023/04/26 19:12:11;;;;;;;;;0.00;0.00;;;;;;;;6237060;22;49680;-71
2023/04/26 19:14:36;;;;;;;;;0.00;0.00;;;;;;;;6264591;22;50419;-73
2023/04/26 19:17:02;;;;;;;;;0.00;0.00;;;;;;;;6264780;22;49692;-73
2023/04/26 19:19:28;;;;;;;;;0.00;0.00;;;;;;;;6264312;22;49808;-72
2023/04/26 19:21:53;;;;;;;;;0.00;0.00;;;;;;;;6264556;22;50040;-73
2023/04/26 19:24:18;;;;;;;;;0.00;0.00;;;;;;;;6264032;22;51325;-72
2023/04/26 19:26:43;;;;;;;;;0.00;0.00;;;;;;;;6264575;22;49771;-73
2023/04/26 19:29:09;;;;;;;;;0.00;0.00;;;;;;;;6264433;22;49605;-72
2023/04/26 19:31:34;;;;;;;;;0.00;0.00;;;;;;;;6264683;22;49662;-70
2023/04/26 19:34:00;;;;;;;;;0.00;0.00;;;;;;;;6264059;22;50798;-73
2023/04/26 19:36:26;;;;;;;;;0.00;0.00;;;;;;;;6264617;22;49776;-75
2023/04/26 19:38:51;;;;;;;;;0.00;0.00;;;;;;;;6265691;22;49925;-74
2023/04/26 19:41:16;;;;;;;;;0.00;0.00;;;;;;;;6266162;22;50008;-75
2023/04/26 19:43:44;;;;;;;;;0.00;0.00;;;;;;;;6266109;22;49602;-74
2023/04/26 19:46:10;;;;;;;;;0.00;0.00;;;;;;;;6265935;22;49930;-74
2023/04/26 19:48:35;;;;;;;;;0.00;0.00;;;;;;;;6265764;22;49941;-74
2023/04/26 19:51:00;;;;;;;;;0.00;0.00;;;;;;;;6265636;22;50050;-74
2023/04/26 19:53:26;;;;;;;;;1.00;1.00;;;;;;;;6265312;22;51442;-73
2023/04/26 19:55:51;;;;;;;;;0.00;0.00;;;;;;;;6265399;22;49711;-75
2023/04/26 19:58:16;;;;;;;;;0.00;0.00;;;;;;;;6265584;22;49973;-74
2023/04/26 20:00:42;;;;;;;;;0.00;0.00;;;;;;;;6265900;22;49995;-73
2023/04/26 20:03:07;;;;;;;;;0.00;0.00;;;;;;;;6265713;22;50801;-72
2023/04/26 20:05:32;;;;;;;;;0.00;0.00;;;;;;;;6265903;22;49634;-72
2023/04/26 20:07:58;;;;;;;;;0.00;0.00;;;;;;;;6265462;22;50175;-74
2023/04/26 20:10:23;;;;;;;;;0.00;0.00;;;;;;;;6265277;22;49982;-71
2023/04/26 20:12:48;;;;;;;;;0.00;0.00;;;;;;;;6265515;22;50377;-74
2023/04/26 20:15:14;;;;;;;;;0.00;0.00;;;;;;;;6265664;22;49656;-74
2023/04/26 20:17:40;;;;;;;;;0.00;0.00;;;;;;;;6265529;22;50133;-74
2023/04/26 20:20:07;;;;;;;;;0.00;0.00;;;;;;;;6265845;22;49655;-74
2023/04/26 20:22:32;;;;;;;;;0.00;0.00;;;;;;;;6265867;22;49879;-70
2023/04/26 20:24:57;;;;;;;;;0.00;0.00;;;;;;;;6265446;22;49955;-74
2023/04/26 20:27:23;;;;;;;;;0.00;0.00;;;;;;;;6265452;22;49556;-70
2023/04/26 20:29:48;;;;;;;;;0.00;0.00;;;;;;;;6265857;22;49608;-70
2023/04/26 20:32:13;;;;;;;;;0.00;0.00;;;;;;;;6265270;22;50496;-70
2023/04/26 20:34:38;;;;;;;;;0.00;0.00;;;;;;;;6264691;22;49852;-70
2023/04/26 20:37:04;;;;;;;;;0.00;0.00;;;;;;;;6237447;22;49531;-68
2023/04/26 20:39:32;;;;;;;;;0.00;0.00;;;;;;;;6265802;22;49789;-68
2023/04/26 20:41:57;;;;;;;;;0.00;0.00;;;;;;;;6238483;22;50871;-69
2023/04/26 20:44:22;;;;;;;;;0.00;0.00;;;;;;;;6238101;22;49885;-69
2023/04/26 20:46:47;;;;;;;;;0.00;0.00;;;;;;;;6265578;22;49951;-69